createdAt,value
2019-02-16T00:00:57.104Z,127.80
2019-02-16T00:03:36.781Z,125.85
2019-02-16T00:06:11.047Z,119.05
2019-02-16T00:08:46.948Z,129.65
2019-02-16T00:11:19.469Z,128.85
2019-02-16T00:13:53.890Z,121.10
2019-02-16T00:16:26.784Z,132.85
2019-02-16T00:18:59.076Z,143.35
2019-02-16T00:21:31.583Z,150.38
2019-02-16T00:24:06.948Z,158.00
2019-02-16T00:26:39.071Z,150.90
2019-02-16T00:29:11.760Z,147.00
2019-02-16T00:31:45.281Z,149.47
2019-02-16T00:34:25.932Z,125.20
2019-02-16T00:36:58.626Z,135.05
2019-02-16T00:39:32.361Z,137.57
2019-02-16T00:42:04.591Z,137.77
2019-02-16T00:44:40.992Z,145.77
2019-02-16T00:47:18.170Z,139.35
2019-02-16T00:49:53.559Z,135.50
2019-02-16T00:52:29.566Z,128.42
2019-02-16T00:55:01.742Z,125.78
2019-02-16T00:57:34.190Z,139.05
2019-02-16T01:00:07.637Z,135.82
2019-02-16T01:02:40.776Z,145.95
2019-02-16T01:05:14.904Z,141.20
2019-02-16T01:07:48.428Z,136.90
2019-02-16T01:10:21.890Z,133.07
2019-02-16T01:12:57.876Z,138.50
2019-02-16T01:15:31.478Z,135.03
2019-02-16T01:18:05.594Z,127.13
2019-02-16T01:20:53.501Z,127.17
2019-02-16T01:23:29.985Z,129.53
2019-02-16T01:26:05.474Z,127.45
2019-02-16T01:28:38.806Z,130.47
2019-02-16T01:31:10.730Z,125.65
2019-02-16T01:33:42.684Z,126.65
2019-02-16T01:36:18.309Z,125.87
2019-02-16T01:38:50.194Z,123.13
2019-02-16T01:41:22.133Z,124.50
2019-02-16T01:43:55.591Z,125.50
2019-02-16T01:46:27.460Z,117.47
2019-02-16T01:48:59.265Z,122.10
2019-02-16T01:51:32.288Z,124.78
2019-02-16T01:54:04.239Z,118.50
2019-02-16T01:56:36.092Z,124.47
2019-02-16T01:59:07.979Z,116.57
2019-02-16T02:01:40.966Z,123.53
2019-02-16T02:04:12.987Z,124.65
2019-02-16T02:06:47.383Z,116.42
2019-02-16T02:09:19.222Z,101.35
2019-02-16T02:11:51.098Z,117.53
2019-02-16T02:14:23.229Z,110.63
2019-02-16T02:16:55.611Z,114.05
2019-02-16T02:19:29.542Z,117.90
2019-02-16T02:22:01.500Z,122.67
2019-02-16T02:24:33.354Z,116.47
2019-02-16T02:27:05.375Z,120.35
2019-02-16T02:29:37.370Z,114.92
2019-02-16T02:32:09.245Z,113.28
2019-02-16T02:34:41.248Z,119.50
2019-02-16T02:37:13.055Z,121.15
2019-02-16T02:39:44.993Z,120.70
2019-02-16T02:42:19.808Z,117.05
2019-02-16T02:44:51.699Z,112.87
2019-02-16T02:47:23.636Z,115.40
2019-02-16T02:49:55.729Z,117.85
2019-02-16T02:52:27.582Z,128.63
2019-02-16T02:54:59.871Z,113.60
2019-02-16T02:58:01.761Z,102.50
2019-02-16T03:00:40.331Z,104.73
2019-02-16T03:03:12.419Z,101.70
2019-02-16T03:05:44.352Z,109.07
2019-02-16T03:08:17.842Z,101.60
2019-02-16T03:10:49.849Z,106.00
2019-02-16T03:13:23.115Z,100.20
2019-02-16T03:15:55.688Z,98.95
2019-02-16T03:18:27.534Z,96.40
2019-02-16T03:20:59.400Z,99.90
2019-02-16T03:23:31.848Z,106.43
2019-02-16T03:26:40.069Z,103.07
2019-02-16T03:29:49.022Z,94.60
2019-02-16T03:32:52.061Z,100.27
2019-02-16T03:35:55.415Z,109.50
2019-02-16T03:38:47.401Z,103.43
2019-02-16T03:41:19.276Z,104.73
2019-02-16T03:43:53.201Z,103.87
2019-02-16T03:46:25.072Z,100.38
2019-02-16T03:48:56.991Z,114.83
2019-02-16T03:51:30.269Z,93.90
2019-02-16T03:54:02.136Z,94.23
2019-02-16T03:56:53.666Z,100.40
2019-02-16T03:59:25.887Z,96.67
2019-02-16T04:01:58.120Z,98.10
2019-02-16T04:04:29.909Z,87.88
2019-02-16T04:07:03.563Z,89.45
2019-02-16T04:09:35.380Z,105.93
2019-02-16T04:12:08.804Z,104.27
2019-02-16T04:14:40.683Z,112.70
2019-02-16T04:17:12.469Z,112.77
2019-02-16T04:19:45.997Z,106.20
2019-02-16T04:22:24.517Z,92.13
2019-02-16T04:24:51.355Z,93.67
2019-02-16T04:27:23.366Z,99.97
2019-02-16T04:29:55.147Z,93.67
2019-02-16T04:32:27.357Z,95.53
2019-02-16T04:34:59.231Z,91.70
2019-02-16T04:37:31.378Z,88.77
2019-02-16T04:40:04.690Z,97.83
2019-02-16T04:42:36.651Z,92.47
2019-02-16T04:45:09.044Z,92.27
2019-02-16T04:47:40.864Z,83.85
2019-02-16T04:50:12.791Z,87.95
2019-02-16T04:52:44.593Z,77.95
2019-02-16T04:55:16.587Z,85.00
2019-02-16T04:57:49.964Z,86.00
2019-02-16T05:00:22.121Z,86.23
2019-02-16T05:02:53.993Z,83.10
2019-02-16T05:05:26.100Z,86.80
2019-02-16T05:07:57.945Z,90.20
2019-02-16T05:10:29.741Z,82.57
2019-02-16T05:13:01.614Z,89.37
2019-02-16T05:15:33.624Z,82.07
2019-02-16T05:18:05.853Z,91.53
2019-02-16T05:20:37.674Z,82.57
2019-02-16T05:23:09.987Z,76.97
2019-02-16T05:25:42.566Z,72.63
2019-02-16T05:28:14.403Z,77.45
2019-02-16T05:30:46.217Z,83.60
2019-02-16T05:33:21.235Z,74.93
2019-02-16T05:35:53.282Z,75.97
2019-02-16T05:38:25.508Z,75.12
2019-02-16T05:40:57.370Z,77.07
2019-02-16T05:43:29.306Z,76.20
2019-02-16T05:46:02.397Z,81.95
2019-02-16T05:48:34.249Z,77.50
2019-02-16T05:51:06.092Z,82.63
2019-02-16T05:53:37.927Z,85.93
2019-02-16T05:56:09.737Z,80.93
2019-02-16T05:58:42.565Z,81.83
2019-02-16T06:01:14.354Z,77.87
2019-02-16T06:03:46.198Z,72.80
2019-02-16T06:06:17.993Z,75.10
2019-02-16T06:08:52.540Z,71.50
2019-02-16T06:11:24.329Z,72.20
2019-02-16T06:13:56.182Z,69.63
2019-02-16T06:16:29.609Z,76.20
2019-02-16T06:19:01.451Z,75.37
2019-02-16T06:21:33.268Z,69.70
2019-02-16T06:24:05.138Z,78.27
2019-02-16T06:26:37.044Z,77.20
2019-02-16T06:29:09.318Z,80.17
2019-02-16T06:31:43.458Z,71.13
2019-02-16T06:34:16.481Z,71.10
2019-02-16T06:36:48.512Z,65.93
2019-02-16T06:39:20.373Z,63.23
2019-02-16T06:41:52.174Z,60.97
2019-02-16T06:44:25.919Z,62.27
2019-02-16T06:46:57.768Z,65.87
2019-02-16T06:49:30.570Z,64.83
2019-02-16T06:52:02.396Z,67.87
2019-02-16T06:54:34.199Z,70.33
2019-02-16T06:57:13.003Z,74.90
2019-02-16T06:59:44.802Z,74.17
2019-02-16T07:02:16.710Z,68.00
2019-02-16T07:04:48.540Z,67.43
2019-02-16T07:07:20.348Z,67.90
2019-02-16T07:09:52.791Z,65.97
2019-02-16T07:12:24.620Z,70.03
2019-02-16T07:14:56.434Z,62.47
2019-02-16T07:17:43.053Z,70.90
2019-02-16T07:20:16.072Z,67.10
2019-02-16T07:22:47.889Z,64.87
2019-02-16T07:25:20.899Z,60.47
2019-02-16T07:27:52.729Z,54.80
2019-02-16T07:30:24.551Z,55.77
2019-02-16T07:32:56.840Z,62.77
2019-02-16T07:35:29.442Z,68.10
2019-02-16T07:38:03.236Z,65.80
2019-02-16T07:40:36.867Z,67.63
2019-02-16T07:43:10.938Z,66.03
2019-02-16T07:45:59.653Z,68.60
2019-02-16T07:48:50.386Z,57.57
2019-02-16T07:51:43.976Z,54.33
2019-02-16T07:54:30.637Z,57.60
2019-02-16T07:57:10.184Z,55.77
2019-02-16T08:00:00.891Z,57.60
2019-02-16T08:02:58.027Z,49.50
2019-02-16T08:05:41.830Z,62.30
2019-02-16T08:08:38.802Z,60.27
2019-02-16T08:11:18.275Z,57.60
2019-02-16T08:13:58.428Z,51.67
2019-02-16T08:16:43.083Z,49.77
2019-02-16T08:19:33.375Z,51.33
2019-02-16T08:22:26.674Z,49.33
2019-02-16T08:25:20.121Z,45.67
2019-02-16T08:28:09.444Z,48.10
2019-02-16T08:30:52.460Z,54.03
2019-02-16T08:33:32.569Z,51.23
2019-02-16T08:36:12.411Z,55.33
2019-02-16T08:39:10.127Z,61.60
2019-02-16T08:42:13.500Z,57.77
2019-02-16T08:45:22.694Z,55.03
2019-02-16T08:48:09.364Z,47.33
2019-02-16T08:50:56.783Z,51.53
2019-02-16T08:53:53.450Z,50.83
2019-02-16T08:56:53.161Z,48.93
2019-02-16T08:59:35.611Z,45.87
2019-02-16T09:02:24.930Z,44.97
2019-02-16T09:05:19.255Z,49.37
2019-02-16T09:07:58.680Z,37.70
2019-02-16T09:10:36.870Z,42.33
2019-02-16T09:13:31.043Z,39.25
2019-02-16T09:16:11.002Z,40.95
2019-02-16T09:19:01.740Z,42.60
2019-02-16T09:21:58.273Z,35.55
2019-02-16T09:25:04.070Z,37.63
2019-02-16T09:27:45.637Z,43.33
2019-02-16T09:30:30.020Z,38.23
2019-02-16T09:33:17.162Z,44.18
2019-02-16T09:36:10.883Z,42.90
2019-02-16T09:39:10.384Z,39.67
2019-02-16T09:41:47.867Z,36.00
2019-02-16T09:44:40.183Z,37.53
2019-02-16T09:47:36.994Z,36.03
2019-02-16T09:50:17.534Z,35.30
2019-02-16T09:53:08.659Z,44.75
2019-02-16T09:56:02.167Z,37.53
2019-02-16T09:58:55.857Z,41.13
2019-02-16T10:01:46.883Z,37.65
2019-02-16T10:04:55.291Z,40.67
2019-02-16T10:07:35.010Z,36.50
2019-02-16T10:10:12.105Z,41.60
2019-02-16T10:13:12.099Z,38.73
2019-02-16T10:16:19.491Z,40.38
2019-02-16T10:19:22.270Z,34.18
2019-02-16T10:22:19.959Z,39.23
2019-02-16T10:25:01.605Z,36.28
2019-02-16T10:27:52.792Z,40.60
2019-02-16T10:30:31.162Z,35.17
2019-02-16T10:33:29.714Z,39.15
2019-02-16T10:36:15.893Z,44.85
2019-02-16T10:39:06.805Z,46.95
2019-02-16T10:41:54.018Z,45.23
2019-02-16T10:44:35.139Z,53.28
2019-02-16T10:47:21.012Z,51.30
2019-02-16T10:50:11.409Z,47.67
2019-02-16T10:53:09.148Z,45.75
2019-02-16T10:56:14.947Z,41.75
2019-02-16T10:59:11.928Z,42.13
2019-02-16T11:02:06.958Z,38.40
2019-02-16T11:04:46.336Z,43.80
2019-02-16T11:07:40.479Z,41.10
2019-02-16T11:10:26.468Z,34.00
2019-02-16T11:13:07.517Z,40.35
2019-02-16T11:16:08.456Z,35.75
2019-02-16T11:18:58.026Z,39.13
2019-02-16T11:21:51.818Z,38.25
2019-02-16T11:24:51.614Z,43.02
2019-02-16T11:27:56.179Z,37.25
2019-02-16T11:30:45.386Z,30.45
2019-02-16T11:33:24.697Z,30.90
2019-02-16T11:36:15.488Z,27.80
2019-02-16T11:39:14.205Z,24.05
2019-02-16T11:42:07.593Z,28.65
2019-02-16T11:45:00.317Z,21.82
2019-02-16T11:48:00.749Z,25.95
2019-02-16T11:50:52.118Z,21.50
2019-02-16T11:53:31.069Z,21.02
2019-02-16T11:56:31.714Z,23.12
2019-02-16T11:59:22.682Z,27.25
2019-02-16T12:02:00.016Z,25.77
2019-02-16T12:04:44.116Z,24.67
2019-02-16T12:07:38.079Z,23.10
2019-02-16T12:10:28.199Z,22.58
2019-02-16T12:13:16.818Z,24.55
2019-02-16T12:15:56.188Z,23.42
2019-02-16T12:19:02.215Z,19.20
2019-02-16T12:21:51.383Z,21.48
2019-02-16T12:25:04.997Z,20.08
2019-02-16T12:27:51.392Z,21.55
2019-02-16T12:30:38.309Z,18.32
2019-02-16T12:33:35.076Z,14.43
2019-02-16T12:36:34.700Z,13.88
2019-02-16T12:39:25.726Z,17.90
2019-02-16T12:42:14.977Z,16.17
2019-02-16T12:45:01.670Z,18.65
2019-02-16T12:48:04.587Z,22.05
2019-02-16T12:50:59.477Z,14.95
2019-02-16T12:53:50.147Z,16.27
2019-02-16T12:56:33.453Z,15.05
2019-02-16T12:59:16.646Z,12.23
2019-02-16T13:02:13.333Z,14.90
2019-02-16T13:05:12.945Z,11.70
2019-02-16T13:07:50.116Z,14.85
2019-02-16T13:10:44.021Z,12.03
2019-02-16T13:13:52.851Z,11.95
2019-02-16T13:16:49.532Z,12.53
2019-02-16T13:19:41.961Z,15.32
2019-02-16T13:22:32.878Z,13.88
2019-02-16T13:25:24.696Z,15.50
2019-02-16T13:28:14.472Z,12.13
2019-02-16T13:31:17.514Z,14.75
2019-02-16T13:34:07.896Z,13.25
2019-02-16T13:36:55.786Z,13.65
2019-02-16T13:39:44.501Z,12.70
2019-02-16T13:42:41.008Z,16.00
2019-02-16T13:45:25.462Z,11.73
2019-02-16T13:48:06.241Z,13.18
2019-02-16T13:50:46.094Z,18.77
2019-02-16T13:53:35.823Z,13.93
2019-02-16T13:56:18.259Z,14.53
2019-02-16T13:59:03.251Z,14.55
2019-02-16T14:01:59.560Z,13.60
2019-02-16T14:05:16.578Z,14.33
2019-02-16T14:08:26.278Z,12.78
2019-02-16T14:11:30.775Z,14.60
2019-02-16T14:14:26.675Z,15.98
2019-02-16T14:17:15.066Z,13.13
2019-02-16T14:19:50.299Z,13.70
2019-02-16T14:22:27.902Z,13.68
2019-02-16T14:25:03.783Z,14.85
2019-02-16T14:27:41.993Z,15.20
2019-02-16T14:30:18.067Z,12.43
2019-02-16T14:32:50.446Z,16.42
2019-02-16T14:35:27.880Z,13.83
2019-02-16T14:38:15.858Z,11.48
2019-02-16T14:40:51.038Z,13.50
2019-02-16T14:43:27.543Z,14.70
2019-02-16T14:46:01.749Z,13.93
2019-02-16T14:48:34.308Z,14.68
2019-02-16T14:51:09.919Z,13.22
2019-02-16T14:53:42.638Z,12.20
2019-02-16T14:56:16.513Z,14.18
2019-02-16T14:58:49.005Z,12.50
2019-02-16T15:01:21.184Z,14.45
2019-02-16T15:03:56.778Z,12.45
2019-02-16T15:06:29.571Z,16.80
2019-02-16T15:09:04.792Z,18.35
2019-02-16T15:11:38.483Z,15.70
2019-02-16T15:14:11.127Z,16.00
2019-02-16T15:16:43.368Z,17.25
2019-02-16T15:19:16.567Z,17.27
2019-02-16T15:21:49.495Z,16.17
2019-02-16T15:24:23.970Z,16.85
2019-02-16T15:27:01.061Z,16.50
2019-02-16T15:29:34.660Z,23.83
2019-02-16T15:32:07.724Z,15.30
2019-02-16T15:34:39.996Z,19.10
2019-02-16T15:37:12.062Z,18.02
2019-02-16T15:39:44.235Z,17.85
2019-02-16T15:42:16.264Z,20.57
2019-02-16T15:44:48.816Z,21.75
2019-02-16T15:47:21.057Z,17.48
2019-02-16T15:49:53.475Z,18.50
2019-02-16T15:52:26.593Z,14.75
2019-02-16T15:55:01.293Z,14.58
2019-02-16T15:57:33.490Z,18.60
2019-02-16T16:00:09.470Z,21.07
2019-02-16T16:02:44.115Z,13.80
2019-02-16T16:05:16.643Z,16.77
2019-02-16T16:07:58.438Z,21.37
2019-02-16T16:10:37.727Z,19.00
2019-02-16T16:13:29.499Z,18.67
2019-02-16T16:16:27.367Z,17.02
2019-02-16T16:19:18.953Z,16.07
2019-02-16T16:22:30.625Z,21.93
2019-02-16T16:25:31.721Z,16.73
2019-02-16T16:28:33.147Z,14.20
2019-02-16T16:31:22.802Z,14.90
2019-02-16T16:34:12.534Z,17.95
2019-02-16T16:37:03.220Z,24.35
2019-02-16T16:39:53.121Z,15.75
2019-02-16T16:42:36.247Z,14.38
2019-02-16T16:45:36.399Z,13.65
2019-02-16T16:48:26.557Z,15.05
2019-02-16T16:51:26.265Z,13.60
2019-02-16T16:54:17.020Z,12.50
2019-02-16T16:57:13.611Z,17.25
2019-02-16T17:00:19.613Z,33.53
2019-02-16T17:03:12.428Z,33.88
2019-02-16T17:06:16.833Z,25.32
2019-02-16T17:09:08.506Z,18.60
2019-02-16T17:11:59.650Z,16.37
2019-02-16T17:14:36.682Z,25.40
2019-02-16T17:20:34.334Z,26.45
2019-02-16T17:23:34.171Z,24.07
2019-02-16T17:26:23.543Z,17.48
2019-02-16T17:29:14.284Z,19.35
2019-02-16T17:31:57.679Z,19.70
2019-02-16T17:34:48.529Z,20.37
2019-02-16T17:37:51.205Z,16.77
2019-02-16T17:40:30.768Z,22.62
2019-02-16T17:43:24.334Z,22.20
2019-02-16T17:46:09.404Z,25.15
2019-02-16T17:49:06.239Z,27.58
2019-02-16T17:51:55.858Z,24.85
2019-02-16T17:54:44.273Z,25.43
2019-02-16T17:57:30.878Z,38.10
2019-02-16T18:00:29.114Z,48.42
2019-02-16T18:03:18.801Z,58.38
2019-02-16T18:06:15.329Z,60.63
2019-02-16T18:09:06.121Z,70.97
2019-02-16T18:12:12.413Z,58.13
2019-02-16T18:15:03.801Z,47.23
2019-02-16T18:18:12.860Z,54.25
2019-02-16T18:21:06.470Z,51.15
2019-02-16T18:24:03.104Z,43.58
2019-02-16T18:26:56.748Z,44.93
2019-02-16T18:29:45.821Z,46.37
2019-02-16T18:32:45.626Z,52.27
2019-02-16T18:35:48.723Z,47.40
2019-02-16T18:38:41.570Z,51.55
2019-02-16T18:41:33.655Z,41.23
2019-02-16T18:44:23.115Z,47.17
2019-02-16T18:47:13.939Z,41.30
2019-02-16T18:50:11.398Z,49.63
2019-02-16T18:53:01.286Z,50.55
2019-02-16T18:55:51.304Z,53.68
2019-02-16T18:58:29.661Z,46.37
2019-02-16T19:01:29.385Z,48.42
2019-02-16T19:04:21.220Z,55.38
2019-02-16T19:07:01.173Z,60.85
2019-02-16T19:09:51.710Z,74.40
2019-02-16T19:12:41.523Z,60.43
2019-02-16T19:15:44.243Z,58.85
2019-02-16T19:18:47.025Z,86.05
2019-02-16T19:21:50.162Z,95.60
2019-02-16T19:24:36.858Z,80.17
2019-02-16T19:27:43.089Z,88.55
2019-02-16T19:30:33.931Z,104.05
2019-02-16T19:33:24.789Z,124.18
2019-02-16T19:36:06.109Z,76.37
2019-02-16T19:39:10.800Z,83.47
2019-02-16T19:41:59.971Z,87.82
2019-02-16T19:45:03.283Z,88.42
2019-02-16T19:47:54.592Z,101.02
2019-02-16T19:51:00.426Z,120.75
2019-02-16T19:54:06.451Z,122.53
2019-02-16T19:57:04.154Z,114.40
2019-02-16T20:00:02.087Z,132.43
2019-02-16T20:02:51.501Z,128.02
2019-02-16T20:05:41.973Z,116.33
2019-02-16T20:08:51.966Z,118.70
2019-02-16T20:11:33.670Z,112.37
2019-02-16T20:14:24.753Z,102.32
2019-02-16T20:17:15.172Z,103.95
2019-02-16T20:19:54.962Z,104.25
2019-02-16T20:22:47.438Z,102.17
2019-02-16T20:25:48.645Z,94.28
2019-02-16T20:28:45.448Z,99.92
2019-02-16T20:31:38.494Z,106.10
2019-02-16T20:34:31.371Z,104.45
2019-02-16T20:37:18.906Z,91.02
2019-02-16T20:40:21.554Z,106.20
2019-02-16T20:43:21.313Z,101.75
2019-02-16T20:46:15.395Z,133.52
2019-02-16T20:48:58.870Z,123.53
2019-02-16T20:51:54.169Z,120.35
2019-02-16T20:54:43.942Z,122.35
2019-02-16T20:57:47.865Z,104.80
2019-02-16T21:00:39.928Z,119.13
2019-02-16T21:03:19.472Z,114.92
2019-02-16T21:06:16.333Z,140.62
2019-02-16T21:09:19.814Z,163.25
2019-02-16T21:12:08.744Z,161.00
2019-02-16T21:14:55.212Z,179.42
2019-02-16T21:17:45.970Z,181.87
2019-02-16T21:20:38.156Z,167.75
2019-02-16T21:23:29.347Z,154.38
2019-02-16T21:26:20.090Z,121.20
2019-02-16T21:29:16.513Z,119.90
2019-02-16T21:32:06.540Z,115.08
2019-02-16T21:34:58.070Z,126.22
2019-02-16T21:37:48.849Z,131.97
2019-02-16T21:40:32.057Z,107.65
2019-02-16T21:43:29.159Z,112.35
2019-02-16T21:46:36.394Z,114.85
2019-02-16T21:49:20.037Z,124.30
2019-02-16T21:52:08.732Z,116.82
2019-02-16T21:55:02.685Z,99.83
2019-02-16T21:58:08.118Z,99.87
2019-02-16T22:01:05.774Z,104.03
2019-02-16T22:03:50.061Z,88.92
2019-02-16T22:06:52.435Z,89.62
2019-02-16T22:09:41.834Z,83.33
2019-02-16T22:12:46.966Z,78.37
2019-02-16T22:15:18.951Z,87.40
2019-02-16T22:17:50.854Z,91.60
2019-02-16T22:20:22.732Z,94.92
2019-02-16T22:22:57.207Z,97.27
2019-02-16T22:25:53.431Z,100.67
2019-02-16T22:28:31.143Z,103.75
2019-02-16T22:31:02.773Z,92.78
2019-02-16T22:33:34.616Z,95.67
2019-02-16T22:36:09.470Z,105.52
2019-02-16T22:38:43.884Z,109.27
2019-02-16T22:41:15.603Z,150.93
2019-02-16T22:43:47.441Z,130.27
2019-02-16T22:46:19.308Z,117.90
2019-02-16T22:48:54.696Z,136.57
2019-02-16T22:51:26.634Z,123.62
2019-02-16T22:53:58.454Z,116.57
2019-02-16T22:56:30.495Z,128.23
2019-02-16T22:59:02.306Z,126.10
2019-02-16T23:01:34.355Z,119.13
2019-02-16T23:04:06.255Z,117.65
2019-02-16T23:06:38.392Z,125.45
2019-02-16T23:09:21.186Z,149.87
2019-02-16T23:11:53.018Z,144.20
2019-02-16T23:14:24.875Z,137.62
2019-02-16T23:16:56.756Z,132.70
2019-02-16T23:19:28.553Z,131.82
2019-02-16T23:22:03.506Z,126.87
2019-02-16T23:24:35.410Z,130.65
2019-02-16T23:27:08.912Z,120.92
2019-02-16T23:29:43.610Z,115.12
2019-02-16T23:32:15.437Z,115.67
2019-02-16T23:34:47.404Z,130.45
2019-02-16T23:37:19.235Z,121.82
2019-02-16T23:39:51.237Z,132.85
2019-02-16T23:42:23.215Z,113.60
2019-02-16T23:44:55.081Z,116.80
2019-02-16T23:47:26.961Z,111.50
2019-02-16T23:49:58.798Z,116.17
2019-02-16T23:52:30.951Z,134.15
2019-02-16T23:55:02.744Z,140.68
2019-02-16T23:57:34.668Z,131.15
